createdAt,value
2019-01-19T00:02:18.413Z,72.60
2019-01-19T00:05:48.711Z,73.00
2019-01-19T00:09:04.916Z,73.70
2019-01-19T00:12:30.482Z,71.50
2019-01-19T00:15:24.917Z,74.00
2019-01-19T00:18:44.492Z,72.90
2019-01-19T00:21:44.812Z,71.90
2019-01-19T00:24:41.936Z,74.60
2019-01-19T00:28:11.584Z,72.10
2019-01-19T00:31:26.813Z,73.10
2019-01-19T00:35:03.117Z,74.70
2019-01-19T00:38:07.728Z,75.80
2019-01-19T00:41:44.659Z,74.90
2019-01-19T00:44:56.878Z,74.70
2019-01-19T00:48:14.250Z,72.00
2019-01-19T00:54:10.118Z,72.10
2019-01-19T00:57:17.502Z,73.00
2019-01-19T00:59:52.456Z,73.50
2019-01-19T01:03:23.508Z,72.30
2019-01-19T01:06:44.576Z,73.00
2019-01-19T01:10:01.666Z,71.00
2019-01-19T01:13:09.981Z,72.00
2019-01-19T01:16:36.062Z,74.00
2019-01-19T01:19:46.156Z,74.60
2019-01-19T01:22:58.751Z,72.70
2019-01-19T01:26:14.281Z,72.90
2019-01-19T01:30:04.361Z,72.10
2019-01-19T01:33:08.293Z,73.20
2019-01-19T01:36:21.737Z,73.10
2019-01-19T01:39:52.810Z,72.30
2019-01-19T01:43:07.883Z,71.50
2019-01-19T01:46:20.215Z,73.30
2019-01-19T01:49:57.516Z,72.60
2019-01-19T01:53:37.100Z,72.50
2019-01-19T01:56:11.917Z,72.30
2019-01-19T01:59:41.758Z,73.50
2019-01-19T02:03:15.937Z,73.30
2019-01-19T02:06:34.581Z,75.60
2019-01-19T02:09:51.934Z,76.80
2019-01-19T02:13:06.338Z,75.30
2019-01-19T02:16:35.801Z,75.50
2019-01-19T02:20:06.567Z,75.00
2019-01-19T02:23:38.154Z,74.60
2019-01-19T02:27:03.664Z,74.90
2019-01-19T02:30:05.660Z,74.10
2019-01-19T02:33:30.186Z,75.60
2019-01-19T02:36:46.717Z,75.30
2019-01-19T02:40:12.687Z,74.70
2019-01-19T02:43:48.316Z,75.00
2019-01-19T02:47:15.354Z,76.20
2019-01-19T02:50:17.375Z,76.30
2019-01-19T02:53:54.527Z,76.70
2019-01-19T02:57:17.592Z,76.60
2019-01-19T03:00:33.889Z,75.20
2019-01-19T03:04:11.502Z,75.80
2019-01-19T03:10:28.195Z,74.20
2019-01-19T03:13:55.104Z,73.60
2019-01-19T03:17:34.077Z,73.00
2019-01-19T03:20:41.169Z,75.60
2019-01-19T03:24:28.753Z,74.90
2019-01-19T03:27:35.147Z,74.20
2019-01-19T03:30:58.931Z,72.80
2019-01-19T03:34:21.759Z,74.70
2019-01-19T03:37:49.901Z,75.00
2019-01-19T03:41:35.109Z,75.80
2019-01-19T03:45:00.291Z,76.40
2019-01-19T03:48:33.289Z,77.20
2019-01-19T03:51:26.564Z,76.90
2019-01-19T03:54:41.155Z,76.50
2019-01-19T04:00:58.126Z,75.40
2019-01-19T04:07:48.569Z,72.40
2019-01-19T04:10:48.628Z,73.10
2019-01-19T04:14:16.438Z,75.20
2019-01-19T04:17:40.380Z,76.30
2019-01-19T04:21:16.555Z,75.80
2019-01-19T04:23:55.255Z,72.20
2019-01-19T04:26:33.325Z,73.40
2019-01-19T04:29:01.292Z,74.20
2019-01-19T04:31:29.298Z,75.00
2019-01-19T04:33:58.315Z,76.30
2019-01-19T04:36:27.245Z,77.20
2019-01-19T04:38:55.663Z,76.40
2019-01-19T04:41:23.606Z,74.20
2019-01-19T04:43:51.841Z,74.90
2019-01-19T04:46:19.847Z,76.00
2019-01-19T04:48:48.535Z,73.30
2019-01-19T04:51:16.493Z,73.90
2019-01-19T04:53:45.116Z,76.90
2019-01-19T04:56:13.147Z,73.00
2019-01-19T04:58:41.153Z,77.50
2019-01-19T05:01:09.126Z,73.90
2019-01-19T05:03:37.441Z,74.90
2019-01-19T05:06:12.119Z,74.30
2019-01-19T05:08:35.616Z,73.10
2019-01-19T05:11:03.596Z,73.60
2019-01-19T05:13:31.624Z,75.20
2019-01-19T05:16:00.009Z,74.20
2019-01-19T05:18:27.982Z,74.60
2019-01-19T05:20:56.287Z,75.00
2019-01-19T05:23:25.251Z,74.70
2019-01-19T05:25:53.357Z,75.10
2019-01-19T05:28:21.689Z,77.20
2019-01-19T05:30:49.969Z,75.90
2019-01-19T05:33:17.902Z,75.90
2019-01-19T05:35:45.867Z,74.80
2019-01-19T05:38:14.062Z,74.50
2019-01-19T05:40:42.055Z,73.90
2019-01-19T05:43:10.061Z,75.40
2019-01-19T05:48:06.652Z,74.30
2019-01-19T05:50:35.013Z,77.70
2019-01-19T05:53:03.042Z,76.50
2019-01-19T05:55:31.407Z,75.00
2019-01-19T06:00:33.008Z,74.00
2019-01-19T06:03:01.425Z,75.60
2019-01-19T06:05:29.416Z,75.00
2019-01-19T06:07:57.644Z,75.50
2019-01-19T06:10:25.985Z,75.50
2019-01-19T06:12:54.326Z,76.00
2019-01-19T06:15:23.350Z,75.00
2019-01-19T06:20:21.598Z,75.80
2019-01-19T06:22:49.585Z,76.30
2019-01-19T06:25:17.677Z,76.50
2019-01-19T06:27:45.701Z,76.00
2019-01-19T06:32:44.711Z,77.20
2019-01-19T06:35:12.730Z,78.10
2019-01-19T06:40:11.218Z,75.60
2019-01-19T06:42:39.289Z,72.80
2019-01-19T06:52:37.055Z,74.50
2019-01-19T07:02:31.779Z,72.30
2019-01-19T07:05:00.361Z,75.50
2019-01-19T07:07:28.376Z,74.60
2019-01-19T07:09:57.069Z,73.60
2019-01-19T07:12:25.328Z,73.10
2019-01-19T07:14:53.332Z,74.00
2019-01-19T07:17:23.106Z,70.90
2019-01-19T07:19:51.145Z,71.60
2019-01-19T07:24:47.299Z,71.30
2019-01-19T07:27:15.737Z,71.60
2019-01-19T07:29:43.715Z,71.00
2019-01-19T07:32:11.720Z,70.50
2019-01-19T07:34:39.819Z,70.60
2019-01-19T07:37:09.878Z,71.30
2019-01-19T07:42:07.208Z,72.30
2019-01-19T07:44:35.213Z,73.70
2019-01-19T07:49:32.192Z,73.80
2019-01-19T07:52:00.560Z,73.00
2019-01-19T07:56:56.715Z,70.50
2019-01-19T07:59:24.755Z,70.60
2019-01-19T08:01:53.057Z,71.60
2019-01-19T08:04:21.106Z,70.80
2019-01-19T08:06:49.101Z,70.80
2019-01-19T08:14:13.871Z,69.90
2019-01-19T08:16:42.225Z,70.50
2019-01-19T08:24:08.015Z,69.20
2019-01-19T08:26:36.643Z,69.80
2019-01-19T08:29:06.120Z,70.30
2019-01-19T08:31:34.363Z,69.60
2019-01-19T08:34:03.822Z,69.80
2019-01-19T08:36:32.082Z,68.20
2019-01-19T08:41:28.503Z,68.50
2019-01-19T08:46:27.440Z,68.40
2019-01-19T08:53:53.619Z,67.60
2019-01-19T08:56:23.970Z,68.10
2019-01-19T08:58:53.169Z,69.10
2019-01-19T09:03:49.327Z,67.30
2019-01-19T09:06:18.255Z,68.10
2019-01-19T09:08:46.250Z,68.20
2019-01-19T09:11:16.845Z,68.70
2019-01-19T09:13:44.930Z,65.20
2019-01-19T09:18:43.194Z,64.70
2019-01-19T09:21:12.572Z,64.80
2019-01-19T09:24:01.088Z,65.20
2019-01-19T09:26:29.350Z,65.20
2019-01-19T09:28:57.612Z,65.30
2019-01-19T09:33:55.816Z,63.10
2019-01-19T09:36:23.808Z,63.40
2019-01-19T09:38:53.110Z,62.20
2019-01-19T09:41:21.316Z,62.00
2019-01-19T09:43:49.760Z,63.10
2019-01-19T09:46:17.831Z,61.70
2019-01-19T09:48:46.938Z,62.70
2019-01-19T09:51:17.397Z,62.30
2019-01-19T09:56:13.967Z,60.60
2019-01-19T09:58:43.190Z,61.30
2019-01-19T10:01:13.642Z,60.30
2019-01-19T10:03:41.973Z,60.80
2019-01-19T10:06:10.144Z,60.30
2019-01-19T10:11:07.695Z,58.60
2019-01-19T10:21:00.125Z,57.60
2019-01-19T10:23:28.267Z,58.10
2019-01-19T10:25:56.812Z,56.70
2019-01-19T10:28:25.085Z,57.10
2019-01-19T10:30:53.291Z,57.70
2019-01-19T10:33:22.236Z,58.30
2019-01-19T10:35:50.596Z,58.70
2019-01-19T10:38:19.037Z,57.70
2019-01-19T10:40:47.373Z,57.50
2019-01-19T10:43:18.544Z,56.50
2019-01-19T10:45:46.547Z,57.30
2019-01-19T10:48:14.511Z,56.30
2019-01-19T10:50:49.540Z,56.30
2019-01-19T10:53:18.659Z,57.50
2019-01-19T10:55:46.755Z,58.60
2019-01-19T10:58:14.754Z,57.10
2019-01-19T11:00:44.789Z,57.10
2019-01-19T11:03:17.003Z,57.50
2019-01-19T11:05:45.058Z,57.30
2019-01-19T11:08:13.307Z,57.30
2019-01-19T11:10:41.441Z,57.40
2019-01-19T11:13:09.410Z,55.90
2019-01-19T11:18:07.494Z,56.10
2019-01-19T11:20:36.589Z,55.70
2019-01-19T11:23:04.678Z,56.80
2019-01-19T11:25:32.842Z,56.10
2019-01-19T11:28:01.015Z,56.20
2019-01-19T11:30:30.743Z,56.10
2019-01-19T11:32:58.926Z,56.40
2019-01-19T11:35:26.955Z,56.50
2019-01-19T11:37:55.014Z,57.20
2019-01-19T11:42:53.883Z,56.30
2019-01-19T11:45:22.113Z,57.80
2019-01-19T11:47:50.211Z,57.70
2019-01-19T11:52:46.970Z,57.30
2019-01-19T11:55:18.036Z,57.90
2019-01-19T11:57:47.970Z,58.20
2019-01-19T12:00:19.169Z,58.70
2019-01-19T12:02:47.184Z,58.00
2019-01-19T12:05:15.557Z,58.80
2019-01-19T12:07:43.527Z,58.00
2019-01-19T12:10:18.645Z,58.50
2019-01-19T12:12:50.783Z,58.50
2019-01-19T12:15:18.935Z,58.70
2019-01-19T12:17:47.555Z,58.00
2019-01-19T12:20:25.862Z,57.00
2019-01-19T12:22:53.988Z,57.00
2019-01-19T12:25:22.936Z,56.70
2019-01-19T12:27:51.422Z,56.20
2019-01-19T12:30:22.667Z,56.60
2019-01-19T12:32:51.008Z,56.80
2019-01-19T12:35:19.219Z,57.20
2019-01-19T12:37:47.474Z,57.20
2019-01-19T12:40:17.892Z,57.70
2019-01-19T12:45:25.870Z,57.30
2019-01-19T12:50:24.099Z,58.10
2019-01-19T12:52:53.172Z,57.80
2019-01-19T12:55:21.596Z,58.30
2019-01-19T12:57:49.568Z,58.90
2019-01-19T13:07:49.991Z,57.60
2019-01-19T13:16:23.648Z,57.70
2019-01-19T13:19:31.044Z,57.90
2019-01-19T13:22:52.946Z,58.00
2019-01-19T13:26:10.048Z,58.40
2019-01-19T13:29:59.924Z,59.10
2019-01-19T13:33:11.895Z,58.20
2019-01-19T13:36:53.644Z,58.70
2019-01-19T13:40:07.730Z,57.10
2019-01-19T13:43:44.169Z,57.50
2019-01-19T13:47:24.827Z,58.10
2019-01-19T13:51:05.720Z,58.10
2019-01-19T13:54:50.655Z,57.20
2019-01-19T13:58:13.568Z,57.90
2019-01-19T14:01:39.985Z,58.50
2019-01-19T14:04:54.144Z,58.40
2019-01-19T14:08:05.524Z,57.50
2019-01-19T14:11:10.763Z,58.00
2019-01-19T14:14:41.919Z,58.10
2019-01-19T14:18:01.799Z,57.90
2019-01-19T14:21:29.841Z,58.30
2019-01-19T14:25:05.167Z,57.80
2019-01-19T14:28:32.931Z,58.00
2019-01-19T14:32:08.453Z,57.40
2019-01-19T14:38:07.645Z,55.90
2019-01-19T14:44:02.552Z,55.30
2019-01-19T14:46:52.229Z,55.70
2019-01-19T14:50:11.948Z,56.30
2019-01-19T14:53:44.098Z,57.20
2019-01-19T14:57:03.867Z,56.50
2019-01-19T15:00:44.468Z,56.80
2019-01-19T15:04:11.751Z,56.50
2019-01-19T15:07:38.342Z,55.00
2019-01-19T15:14:14.550Z,55.00
2019-01-19T15:20:19.349Z,54.40
2019-01-19T15:23:38.248Z,55.10
2019-01-19T15:30:25.616Z,54.20
2019-01-19T15:33:55.905Z,54.60
2019-01-19T15:37:33.349Z,55.40
2019-01-19T15:41:14.452Z,54.90
2019-01-19T15:44:26.650Z,56.50
2019-01-19T15:48:05.088Z,57.10
2019-01-19T15:53:50.960Z,55.40
2019-01-19T16:00:41.827Z,56.10
2019-01-19T16:04:25.423Z,57.00
2019-01-19T16:07:31.901Z,57.50
2019-01-19T16:11:01.447Z,56.50
2019-01-19T16:14:22.318Z,56.90
2019-01-19T16:21:06.570Z,56.10
2019-01-19T16:24:13.793Z,55.90
2019-01-19T16:27:52.036Z,56.20
2019-01-19T16:31:27.644Z,56.80
2019-01-19T16:35:21.597Z,57.30
2019-01-19T16:48:40.899Z,58.00
2019-01-19T16:52:02.369Z,58.70
2019-01-19T16:54:58.207Z,58.50
2019-01-19T16:58:08.046Z,59.30
2019-01-19T17:01:39.304Z,60.00
2019-01-19T17:04:52.325Z,59.70
2019-01-19T17:08:06.292Z,59.30
2019-01-19T17:11:06.001Z,59.90
2019-01-19T17:14:24.250Z,60.00
2019-01-19T17:18:08.221Z,60.30
2019-01-19T17:21:57.730Z,60.50
2019-01-19T17:29:01.940Z,62.80
2019-01-19T17:38:22.857Z,61.30
2019-01-19T17:41:40.571Z,62.00
2019-01-19T17:45:11.409Z,62.30
2019-01-19T17:48:26.673Z,64.40
2019-01-19T17:56:58.547Z,62.70
2019-01-19T18:00:03.762Z,62.90
2019-01-19T18:03:29.700Z,63.60
2019-01-19T18:06:45.553Z,63.70
2019-01-19T18:12:58.990Z,65.20
2019-01-19T18:16:01.067Z,63.80
2019-01-19T18:23:01.345Z,64.00
2019-01-19T18:25:49.697Z,64.20
2019-01-19T18:32:08.540Z,63.40
2019-01-19T18:35:24.879Z,64.20
2019-01-19T18:38:33.684Z,64.50
2019-01-19T18:41:42.457Z,65.00
2019-01-19T18:44:59.545Z,65.10
2019-01-19T18:47:51.812Z,64.80
2019-01-19T18:51:23.626Z,65.20
2019-01-19T18:54:56.467Z,66.60
2019-01-19T18:58:35.628Z,66.20
2019-01-19T19:02:01.426Z,66.90
2019-01-19T19:05:31.715Z,67.10
2019-01-19T19:09:07.267Z,65.90
2019-01-19T19:12:23.587Z,66.50
2019-01-19T19:15:39.291Z,66.70
2019-01-19T19:19:05.267Z,66.20
2019-01-19T19:22:45.981Z,66.90
2019-01-19T19:26:36.790Z,66.00
2019-01-19T19:29:54.076Z,65.50
2019-01-19T19:33:17.217Z,65.70
2019-01-19T19:36:31.061Z,65.10
2019-01-19T19:39:32.129Z,64.80
2019-01-19T19:46:16.188Z,65.50
2019-01-19T19:49:53.897Z,64.90
2019-01-19T19:52:27.923Z,65.60
2019-01-19T19:54:52.140Z,64.50
2019-01-19T19:57:20.569Z,64.20
2019-01-19T19:59:48.941Z,64.30
2019-01-19T20:02:18.607Z,64.80
2019-01-19T20:04:46.797Z,65.30
2019-01-19T20:07:14.965Z,65.10
2019-01-19T20:09:43.380Z,65.50
2019-01-19T20:12:11.616Z,65.80
2019-01-19T20:14:39.627Z,65.50
2019-01-19T20:17:07.937Z,65.20
2019-01-19T20:19:40.558Z,66.20
2019-01-19T20:22:08.830Z,66.70
2019-01-19T20:24:38.525Z,65.90
2019-01-19T20:29:38.703Z,65.70
2019-01-19T20:32:06.677Z,66.10
2019-01-19T20:34:34.914Z,66.60
2019-01-19T20:37:06.423Z,66.30
2019-01-19T20:39:35.284Z,66.60
2019-01-19T20:42:03.853Z,67.20
2019-01-19T20:44:32.042Z,66.90
2019-01-19T20:47:02.893Z,66.50
2019-01-19T20:56:59.034Z,66.30
2019-01-19T20:59:27.068Z,67.20
2019-01-19T21:01:55.392Z,66.90
2019-01-19T21:04:25.915Z,66.80
2019-01-19T21:06:54.207Z,67.00
2019-01-19T21:09:22.487Z,67.70
2019-01-19T21:14:18.611Z,68.00
2019-01-19T21:16:46.795Z,68.10
2019-01-19T21:19:14.921Z,67.70
2019-01-19T21:24:11.640Z,67.40
2019-01-19T21:26:40.545Z,67.90
2019-01-19T21:36:32.530Z,69.90
2019-01-19T21:39:00.667Z,70.60
2019-01-19T21:41:30.481Z,69.50
2019-01-19T21:43:58.719Z,70.60
2019-01-19T21:46:27.243Z,66.40
2019-01-19T21:48:56.128Z,66.30
2019-01-19T21:51:24.601Z,66.60
2019-01-19T21:56:21.535Z,65.50
2019-01-19T21:58:50.797Z,68.40
2019-01-19T22:01:20.699Z,68.80
2019-01-19T22:03:48.933Z,69.50
2019-01-19T22:06:16.929Z,68.40
2019-01-19T22:08:45.235Z,66.60
2019-01-19T22:11:13.279Z,67.90
2019-01-19T22:13:41.394Z,66.80
2019-01-19T22:18:37.563Z,68.50
2019-01-19T22:21:05.910Z,66.60
2019-01-19T22:23:35.055Z,69.30
2019-01-19T22:26:05.895Z,67.70
2019-01-19T22:28:34.393Z,67.20
2019-01-19T22:31:02.800Z,66.10
2019-01-19T22:33:31.100Z,66.70
2019-01-19T22:35:59.119Z,68.20
2019-01-19T22:38:27.397Z,68.60
2019-01-19T22:40:55.403Z,67.60
2019-01-19T22:43:29.681Z,67.80
2019-01-19T22:45:57.909Z,69.60
2019-01-19T22:48:26.072Z,67.10
2019-01-19T22:50:54.412Z,72.80
2019-01-19T22:55:50.791Z,69.40
2019-01-19T22:58:18.763Z,75.30
2019-01-19T23:01:20.204Z,67.80
2019-01-19T23:03:49.427Z,68.20
2019-01-19T23:06:17.630Z,68.60
2019-01-19T23:08:45.993Z,68.70
2019-01-19T23:11:13.930Z,68.40
2019-01-19T23:13:42.044Z,69.10
2019-01-19T23:16:10.198Z,69.40
2019-01-19T23:18:38.151Z,69.00
2019-01-19T23:21:06.163Z,69.40
2019-01-19T23:26:02.930Z,68.70
2019-01-19T23:28:32.358Z,68.90
2019-01-19T23:31:00.368Z,69.20
2019-01-19T23:33:28.867Z,69.80
2019-01-19T23:35:56.869Z,71.10
2019-01-19T23:38:25.146Z,71.90
2019-01-19T23:40:53.141Z,72.40
2019-01-19T23:43:22.504Z,70.50
2019-01-19T23:45:50.539Z,69.20
2019-01-19T23:50:46.797Z,69.40
2019-01-19T23:53:14.816Z,68.90
2019-01-19T23:55:43.049Z,70.20
2019-01-19T23:58:11.322Z,68.90
